Time;durP1;ratioP1;P1;durP2;ratioP2;P2;SDS_P1;SDS_P2;PMS_P1;PMS_P2;Temp;Humidity;BMP_temperature;BMP_pressure;BME280_temperature;BME280_humidity;BME280_pressure;Samples;Min_cycle;Max_cycle;Signal;HPM_P1;HPM_P2
2023/08/19 00:00:22;;;;;;;4.63;4.27;;;23.00;99.90;;;;;;4974300;28;20467;-68
2023/08/19 00:02:47;;;;;;;5.50;4.90;;;22.90;99.90;;;;;;4966314;28;20205;-68
2023/08/19 00:05:13;;;;;;;5.33;4.80;;;22.80;99.90;;;;;;4976125;28;20208;-67
2023/08/19 00:07:38;;;;;;;5.53;4.50;;;22.80;99.90;;;;;;4969411;28;20349;-68
2023/08/19 00:10:05;;;;;;;6.50;5.73;;;22.70;99.90;;;;;;4972344;28;20263;-67
2023/08/19 00:12:31;;;;;;;5.27;4.77;;;22.70;99.90;;;;;;4972820;28;20212;-67
2023/08/19 00:14:57;;;;;;;5.67;5.07;;;22.70;99.90;;;;;;4970937;28;20454;-68
2023/08/19 00:17:23;;;;;;;7.70;4.37;;;22.70;99.90;;;;;;4971833;28;20440;-68
2023/08/19 00:19:50;;;;;;;6.60;5.03;;;22.60;99.90;;;;;;4972219;28;20455;-68
2023/08/19 00:22:15;;;;;;;5.83;5.23;;;22.60;99.90;;;;;;4969360;28;20471;-67
2023/08/19 00:24:41;;;;;;;8.43;4.23;;;22.60;99.90;;;;;;4965778;28;20442;-68
2023/08/19 00:27:07;;;;;;;6.60;4.57;;;22.60;99.90;;;;;;4968191;28;20180;-68
2023/08/19 00:29:32;;;;;;;6.37;5.43;;;22.50;99.90;;;;;;4974221;28;20187;-68
2023/08/19 00:31:58;;;;;;;5.17;4.67;;;22.50;99.90;;;;;;4973397;28;20312;-68
2023/08/19 00:34:23;;;;;;;4.40;4.10;;;22.40;99.90;;;;;;4970494;28;20184;-69
2023/08/19 00:36:49;;;;;;;5.40;4.90;;;22.30;99.90;;;;;;4973243;28;20219;-68
2023/08/19 00:39:15;;;;;;;5.90;4.77;;;22.30;99.90;;;;;;4974465;28;20180;-67
2023/08/19 00:41:40;;;;;;;4.80;4.30;;;22.20;99.90;;;;;;4975583;28;20212;-67
2023/08/19 00:44:07;;;;;;;5.63;5.03;;;22.10;99.90;;;;;;4973063;28;20514;-68
2023/08/19 00:46:33;;;;;;;5.93;4.57;;;22.10;99.90;;;;;;4975118;28;20306;-68
2023/08/19 00:49:00;;;;;;;5.77;5.27;;;22.00;99.90;;;;;;4970723;28;20424;-69
2023/08/19 00:51:26;;;;;;;5.20;4.80;;;22.10;99.90;;;;;;4944509;28;20435;-68
2023/08/19 00:53:52;;;;;;;6.43;5.03;;;22.00;99.90;;;;;;4972118;28;20526;-68
2023/08/19 00:56:18;;;;;;;6.57;4.00;;;22.00;99.90;;;;;;4975126;28;20184;-68
2023/08/19 00:58:45;;;;;;;8.73;5.93;;;22.00;99.90;;;;;;4974518;28;20486;-68
2023/08/19 01:01:11;;;;;;;5.97;4.90;;;22.00;99.90;;;;;;4972333;28;20475;-68
2023/08/19 01:03:37;;;;;;;5.10;4.60;;;22.00;99.90;;;;;;4973030;28;20518;-68
2023/08/19 01:06:14;;;;;;;5.73;5.10;;;22.00;99.90;;;;;;4969717;28;20443;-68
2023/08/19 01:09:07;;;;;;;5.40;4.87;;;21.90;99.90;;;;;;4974130;28;20251;-68
2023/08/19 01:11:48;;;;;;;5.63;5.13;;;21.90;99.90;;;;;;4968468;28;20474;-67
2023/08/19 01:14:22;;;;;;;6.30;5.07;;;21.90;99.90;;;;;;4968158;28;20539;-68
2023/08/19 01:16:50;;;;;;;6.50;6.00;;;21.90;99.90;;;;;;4975050;28;20435;-69
2023/08/19 01:19:23;;;;;;;6.73;6.03;;;21.80;99.90;;;;;;4973966;28;20453;-70
2023/08/19 01:21:52;;;;;;;7.30;4.83;;;21.80;99.90;;;;;;4975727;28;20455;-69
2023/08/19 01:24:22;;;;;;;9.53;4.97;;;21.70;99.90;;;;;;4967865;28;20541;-69
2023/08/19 01:26:47;;;;;;;6.10;4.87;;;21.70;99.90;;;;;;4972944;28;20463;-69
2023/08/19 01:29:13;;;;;;;4.70;4.30;;;21.60;99.90;;;;;;4970853;28;20476;-69
2023/08/19 01:31:38;;;;;;;4.87;4.10;;;21.60;99.90;;;;;;4975487;28;20207;-69
2023/08/19 01:34:04;;;;;;;7.30;5.03;;;21.60;99.90;;;;;;4975535;28;20200;-69
2023/08/19 01:36:38;;;;;;;4.97;4.57;;;21.60;99.90;;;;;;4974317;28;20176;-69
2023/08/19 01:39:08;;;;;;;6.03;5.43;;;21.50;99.90;;;;;;4969951;28;20188;-69
2023/08/19 01:41:34;;;;;;;8.53;4.80;;;21.50;99.90;;;;;;4975168;28;20499;-69
2023/08/19 01:44:02;;;;;;;5.00;4.10;;;21.50;99.90;;;;;;4975410;28;20875;-69
2023/08/19 01:46:28;;;;;;;5.17;4.77;;;21.50;99.90;;;;;;4974184;28;20488;-69
2023/08/19 01:48:54;;;;;;;5.43;4.93;;;21.50;99.90;;;;;;4965552;28;20471;-69
2023/08/19 01:51:20;;;;;;;5.37;4.40;;;21.50;99.90;;;;;;4973721;28;20478;-69
2023/08/19 01:53:45;;;;;;;4.90;4.53;;;21.50;99.90;;;;;;4974205;28;20448;-69
2023/08/19 01:56:14;;;;;;;5.37;4.87;;;21.60;99.90;;;;;;4974167;28;20184;-70
2023/08/19 01:58:40;;;;;;;5.53;4.33;;;21.60;99.90;;;;;;4972155;28;20195;-69
2023/08/19 02:01:10;;;;;;;5.23;4.67;;;21.50;99.90;;;;;;4967500;28;20460;-69
2023/08/19 02:03:35;;;;;;;4.80;4.00;;;21.60;99.90;;;;;;4974824;28;20207;-69
2023/08/19 02:06:01;;;;;;;6.47;4.23;;;21.50;99.90;;;;;;4975075;28;20921;-69
2023/08/19 02:08:26;;;;;;;4.70;4.23;;;21.50;99.90;;;;;;4966588;28;20226;-69
2023/08/19 02:10:52;;;;;;;8.10;4.53;;;21.40;99.90;;;;;;4970190;28;20552;-69
2023/08/19 02:13:17;;;;;;;5.03;4.63;;;21.40;99.90;;;;;;4973684;28;20234;-69
2023/08/19 02:15:43;;;;;;;6.23;4.80;;;21.30;99.90;;;;;;4970156;28;20192;-69
2023/08/19 02:18:09;;;;;;;5.77;4.20;;;21.40;99.90;;;;;;4971339;28;20184;-69
2023/08/19 02:20:34;;;;;;;4.33;3.80;;;21.30;99.90;;;;;;4972173;28;20836;-68
2023/08/19 02:23:00;;;;;;;9.93;5.03;;;21.30;99.90;;;;;;4974471;28;20192;-69
2023/08/19 02:25:26;;;;;;;11.70;5.03;;;21.30;99.90;;;;;;4972740;28;20175;-69
2023/08/19 02:27:51;;;;;;;6.30;4.90;;;21.30;99.90;;;;;;4968672;28;20518;-70
2023/08/19 02:30:17;;;;;;;6.47;4.60;;;21.20;99.90;;;;;;4970800;28;20276;-69
2023/08/19 02:32:42;;;;;;;6.83;4.30;;;21.30;99.90;;;;;;4967106;28;20586;-69
2023/08/19 02:35:09;;;;;;;6.27;5.40;;;21.20;99.90;;;;;;4973241;28;20180;-69
2023/08/19 02:37:34;;;;;;;6.67;4.67;;;21.10;99.90;;;;;;4969556;28;20181;-69
2023/08/19 02:40:00;;;;;;;4.30;3.90;;;21.10;99.90;;;;;;4969585;28;20797;-69
2023/08/19 02:42:25;;;;;;;6.10;4.70;;;21.10;99.90;;;;;;4973063;28;20222;-69
2023/08/19 02:44:51;;;;;;;5.00;4.50;;;21.00;99.90;;;;;;4974337;28;20210;-69
2023/08/19 02:47:16;;;;;;;7.60;4.23;;;20.90;99.90;;;;;;4974147;28;20183;-69
2023/08/19 02:49:43;;;;;;;8.50;4.93;;;20.90;99.90;;;;;;4971025;28;20184;-69
2023/08/19 02:52:08;;;;;;;4.80;4.40;;;20.90;99.90;;;;;;4971431;28;20200;-68
2023/08/19 02:54:34;;;;;;;6.03;5.33;;;20.90;99.90;;;;;;4973939;28;20431;-69
2023/08/19 02:57:00;;;;;;;5.33;4.93;;;20.80;99.90;;;;;;4974123;28;20226;-69
2023/08/19 02:59:25;;;;;;;8.20;4.90;;;20.80;99.90;;;;;;4973333;28;20527;-69
2023/08/19 03:01:51;;;;;;;4.70;4.40;;;20.90;99.90;;;;;;4970962;28;20562;-69
2023/08/19 03:04:16;;;;;;;4.70;4.30;;;20.80;99.90;;;;;;4969991;28;20181;-69
2023/08/19 03:06:42;;;;;;;4.37;4.00;;;20.90;99.90;;;;;;4973917;28;20188;-69
2023/08/19 03:09:08;;;;;;;6.83;5.50;;;20.80;99.90;;;;;;4968413;28;20219;-69
2023/08/19 03:11:35;;;;;;;4.97;4.57;;;20.80;99.90;;;;;;4972793;28;20188;-69
2023/08/19 03:14:00;;;;;;;7.57;4.90;;;20.80;99.90;;;;;;4971769;28;20215;-68
2023/08/19 03:16:26;;;;;;;9.20;4.60;;;20.80;99.90;;;;;;4973620;28;20423;-69
2023/08/19 03:18:51;;;;;;;5.90;4.77;;;20.80;99.90;;;;;;4966259;28;20185;-68
2023/08/19 03:21:17;;;;;;;6.83;5.40;;;20.80;99.90;;;;;;4970044;28;20220;-68
2023/08/19 03:23:42;;;;;;;5.67;5.07;;;20.80;99.90;;;;;;4972367;28;20207;-69
2023/08/19 03:26:08;;;;;;;5.70;4.83;;;20.80;99.90;;;;;;4971246;28;20263;-69
2023/08/19 03:28:33;;;;;;;5.33;4.80;;;20.80;99.90;;;;;;4972894;28;20247;-69
2023/08/19 03:30:59;;;;;;;6.23;4.67;;;20.80;99.90;;;;;;4971349;28;20235;-68
2023/08/19 03:33:24;;;;;;;6.37;5.10;;;20.80;99.90;;;;;;4972261;28;20200;-69
2023/08/19 03:35:50;;;;;;;5.43;4.53;;;20.90;99.90;;;;;;4972788;28;20247;-69
2023/08/19 03:38:16;;;;;;;5.47;4.57;;;20.90;99.90;;;;;;4966503;28;20227;-69
2023/08/19 03:40:41;;;;;;;5.67;4.70;;;20.80;99.90;;;;;;4971430;28;20219;-69
2023/08/19 03:43:09;;;;;;;5.03;4.20;;;20.80;99.90;;;;;;4967948;28;20200;-69
2023/08/19 03:45:35;;;;;;;4.47;4.17;;;20.80;99.90;;;;;;4972483;28;20259;-69
2023/08/19 03:48:00;;;;;;;4.80;4.40;;;20.80;99.90;;;;;;4969859;28;20526;-69
2023/08/19 03:50:26;;;;;;;4.97;4.47;;;20.70;99.90;;;;;;4965149;28;20199;-69
2023/08/19 03:52:51;;;;;;;6.17;4.80;;;20.70;99.90;;;;;;4967706;28;20205;-69
2023/08/19 03:55:17;;;;;;;5.37;4.80;;;20.60;99.90;;;;;;4970281;28;20188;-69
2023/08/19 03:57:43;;;;;;;4.70;4.40;;;20.60;99.90;;;;;;4973098;28;20176;-69
2023/08/19 04:00:09;;;;;;;5.73;4.83;;;20.60;99.90;;;;;;4971025;28;20188;-69
2023/08/19 04:02:35;;;;;;;6.00;4.77;;;20.60;99.90;;;;;;4967309;28;20989;-69
2023/08/19 04:05:05;;;;;;;5.63;5.03;;;20.50;99.90;;;;;;4976492;28;20530;-69
2023/08/19 04:07:30;;;;;;;6.37;4.80;;;20.50;99.90;;;;;;4979655;28;20299;-68
2023/08/19 04:09:57;;;;;;;7.53;4.60;;;20.60;99.90;;;;;;4973500;28;20522;-69
2023/08/19 04:12:23;;;;;;;4.33;3.93;;;20.60;99.90;;;;;;4970056;28;20223;-69
2023/08/19 04:14:48;;;;;;;4.97;4.30;;;20.70;99.90;;;;;;4978472;28;20459;-69
2023/08/19 04:17:15;;;;;;;5.43;4.93;;;20.80;99.90;;;;;;4974497;28;20471;-69
2023/08/19 04:19:40;;;;;;;5.20;4.33;;;20.80;99.90;;;;;;4977518;28;20195;-69
2023/08/19 04:22:06;;;;;;;5.87;4.80;;;20.80;99.90;;;;;;4977565;28;20474;-69
2023/08/19 04:24:32;;;;;;;6.03;4.23;;;20.80;99.90;;;;;;4972954;28;20560;-69
2023/08/19 04:26:59;;;;;;;6.03;4.60;;;20.80;99.90;;;;;;4978776;28;20192;-68
2023/08/19 04:29:26;;;;;;;6.10;4.70;;;20.70;99.90;;;;;;4974433;28;20437;-68
2023/08/19 04:31:51;;;;;;;5.33;4.80;;;20.70;99.90;;;;;;4976312;28;20441;-69
2023/08/19 04:34:17;;;;;;;5.00;4.60;;;20.60;99.90;;;;;;4969968;28;20451;-69
2023/08/19 04:36:42;;;;;;;5.10;4.60;;;20.60;99.90;;;;;;4974777;28;20192;-69
2023/08/19 04:39:08;;;;;;;7.20;5.23;;;20.70;99.90;;;;;;4973930;28;20235;-69
2023/08/19 04:41:36;;;;;;;7.43;4.47;;;20.70;99.90;;;;;;4978918;28;20203;-68
2023/08/19 04:44:02;;;;;;;4.67;4.27;;;20.80;99.90;;;;;;4994420;28;20198;-69
2023/08/19 04:46:29;;;;;;;8.13;4.77;;;20.80;99.90;;;;;;4976301;28;20490;-69
2023/08/19 04:48:54;;;;;;;5.80;5.23;;;20.90;99.90;;;;;;4974044;28;20435;-69
2023/08/19 04:51:20;;;;;;;4.57;4.27;;;21.00;99.90;;;;;;4979166;28;20610;-69
2023/08/19 04:53:45;;;;;;;6.90;5.13;;;21.00;99.90;;;;;;4974673;28;20286;-69
2023/08/19 04:56:11;;;;;;;5.50;5.00;;;21.10;99.90;;;;;;4976796;28;20206;-68
2023/08/19 04:58:36;;;;;;;10.30;4.73;;;21.20;99.90;;;;;;4979371;28;20188;-68
2023/08/19 05:01:02;;;;;;;5.10;4.70;;;21.30;99.90;;;;;;4978924;28;20200;-68
2023/08/19 05:03:28;;;;;;;6.50;4.97;;;21.30;99.90;;;;;;4978567;28;20224;-68
2023/08/19 05:05:54;;;;;;;4.80;4.40;;;21.50;99.90;;;;;;4977402;28;20435;-68
2023/08/19 05:08:19;;;;;;;5.50;5.00;;;21.60;99.90;;;;;;4965868;28;20192;-69
2023/08/19 05:10:45;;;;;;;6.00;5.50;;;21.70;99.90;;;;;;4972073;28;20271;-69
2023/08/19 05:13:10;;;;;;;5.40;3.90;;;21.80;99.90;;;;;;4978347;28;20543;-70
2023/08/19 05:15:37;;;;;;;6.03;5.43;;;21.90;99.90;;;;;;4976934;28;20199;-70
2023/08/19 05:18:04;;;;;;;8.17;4.80;;;21.90;99.90;;;;;;4970249;28;20226;-70
2023/08/19 05:20:29;;;;;;;4.80;4.40;;;22.00;99.90;;;;;;4969071;28;20872;-70
2023/08/19 05:22:55;;;;;;;8.53;4.80;;;22.20;99.90;;;;;;4956384;29;20440;-70
2023/08/19 05:25:20;;;;;;;6.90;4.83;;;22.30;99.90;;;;;;4956524;28;20698;-70
2023/08/19 05:27:46;;;;;;;5.40;4.90;;;22.30;99.90;;;;;;4967850;28;20720;-71
2023/08/19 05:30:12;;;;;;;7.10;4.40;;;22.40;99.90;;;;;;4967744;28;20673;-70
2023/08/19 05:32:38;;;;;;;9.10;4.93;;;22.60;99.90;;;;;;4974526;28;20207;-70
2023/08/19 05:35:04;;;;;;;5.43;4.70;;;22.70;99.90;;;;;;4974317;28;20227;-70
2023/08/19 05:37:29;;;;;;;6.83;4.40;;;22.80;99.90;;;;;;4973213;28;20648;-70
2023/08/19 05:39:55;;;;;;;8.97;5.17;;;22.90;99.90;;;;;;4973758;28;20439;-70
2023/08/19 05:42:20;;;;;;;6.07;4.57;;;23.00;99.90;;;;;;4968192;28;20677;-70
2023/08/19 05:44:46;;;;;;;11.73;6.47;;;23.10;99.90;;;;;;4974460;28;20192;-70
2023/08/19 05:47:11;;;;;;;13.93;7.37;;;23.30;99.90;;;;;;4973006;28;20186;-70
2023/08/19 05:49:37;;;;;;;8.00;4.90;;;23.40;99.90;;;;;;4963523;28;20184;-70
2023/08/19 05:52:02;;;;;;;7.33;5.23;;;23.60;99.90;;;;;;4978937;28;20192;-71
2023/08/19 05:54:28;;;;;;;7.43;4.90;;;23.70;99.90;;;;;;4964769;28;20715;-70
2023/08/19 05:56:53;;;;;;;6.40;5.23;;;23.90;99.90;;;;;;4972938;28;20267;-70
2023/08/19 05:59:19;;;;;;;7.60;4.47;;;24.00;99.90;;;;;;4973297;28;20228;-70
2023/08/19 06:01:45;;;;;;;5.97;5.10;;;24.10;99.90;;;;;;4977389;28;20727;-71
2023/08/19 06:04:10;;;;;;;5.50;5.00;;;24.20;99.90;;;;;;4974968;28;20926;-70
2023/08/19 06:06:36;;;;;;;9.40;5.30;;;24.40;99.90;;;;;;4974044;28;20664;-70
2023/08/19 06:09:01;;;;;;;6.70;5.60;;;24.50;99.90;;;;;;4970120;28;20378;-70
2023/08/19 06:11:28;;;;;;;11.77;5.40;;;24.60;99.90;;;;;;4969567;28;20212;-70
2023/08/19 06:13:53;;;;;;;7.50;5.00;;;24.80;99.90;;;;;;4955953;28;20224;-70
2023/08/19 06:16:19;;;;;;;6.13;5.20;;;25.00;99.90;;;;;;4969859;28;20459;-70
2023/08/19 06:18:44;;;;;;;11.70;5.57;;;25.00;99.90;;;;;;4971197;28;20192;-71
2023/08/19 06:21:11;;;;;;;5.57;4.47;;;25.10;99.90;;;;;;4974651;28;20200;-71
2023/08/19 06:23:37;;;;;;;7.67;5.57;;;25.20;99.90;;;;;;4974519;28;20207;-71
2023/08/19 06:26:03;;;;;;;6.23;5.53;;;25.30;99.90;;;;;;4967454;28;20971;-71
2023/08/19 06:28:28;;;;;;;5.37;4.90;;;25.30;99.90;;;;;;4969462;28;20447;-71
2023/08/19 06:30:54;;;;;;;6.17;5.17;;;25.40;99.90;;;;;;4975113;28;20188;-71
2023/08/19 06:33:20;;;;;;;6.27;5.23;;;25.60;99.90;;;;;;4968270;28;20243;-71
2023/08/19 06:35:51;;;;;;;11.90;5.90;;;25.70;99.90;;;;;;4971291;28;20445;-71
2023/08/19 06:38:27;;;;;;;10.47;5.33;;;25.70;99.90;;;;;;4965104;28;20655;-71
2023/08/19 06:40:57;;;;;;;5.77;4.90;;;25.80;99.90;;;;;;4973459;28;20842;-71
2023/08/19 06:43:26;;;;;;;7.57;5.00;;;25.80;99.90;;;;;;4974116;28;20446;-71
2023/08/19 06:45:55;;;;;;;7.40;6.10;;;25.90;99.90;;;;;;4974322;28;20443;-71
2023/08/19 06:48:24;;;;;;;7.40;6.70;;;25.90;99.90;;;;;;4968561;28;20522;-72
2023/08/19 06:50:54;;;;;;;7.50;5.17;;;26.00;99.90;;;;;;4972273;28;20455;-71
2023/08/19 06:53:21;;;;;;;9.27;5.97;;;26.10;99.90;;;;;;4977013;28;21064;-71
2023/08/19 06:56:07;;;;;;;7.13;5.10;;;26.20;99.90;;;;;;4973831;28;20959;-71
2023/08/19 06:58:36;;;;;;;7.33;5.40;;;26.20;99.90;;;;;;4976929;28;20455;-71
2023/08/19 07:01:07;;;;;;;7.67;5.20;;;26.30;99.90;;;;;;4974286;28;20525;-71
2023/08/19 07:03:34;;;;;;;7.37;4.70;;;26.40;99.90;;;;;;4972118;28;20451;-72
2023/08/19 07:06:01;;;;;;;6.53;5.10;;;26.50;99.90;;;;;;4974079;28;20427;-71
2023/08/19 07:08:30;;;;;;;6.97;6.40;;;26.70;99.90;;;;;;4968188;28;20445;-72
2023/08/19 07:11:00;;;;;;;6.17;4.60;;;26.90;99.90;;;;;;4976046;28;20494;-71
2023/08/19 07:13:27;;;;;;;9.00;5.23;;;27.10;99.90;;;;;;4969366;28;20478;-71
2023/08/19 07:15:59;;;;;;;9.03;6.67;;;27.40;99.90;;;;;;4973479;28;20487;-71
2023/08/19 07:18:26;;;;;;;6.40;5.40;;;27.60;99.90;;;;;;4960377;28;20436;-72
2023/08/19 07:20:56;;;;;;;6.17;5.50;;;27.90;99.90;;;;;;4957948;28;20470;-72
2023/08/19 07:23:23;;;;;;;5.87;4.90;;;27.70;99.90;;;;;;4973409;28;20884;-71
2023/08/19 07:25:50;;;;;;;5.83;5.10;;;27.50;99.90;;;;;;4970660;28;20460;-71
2023/08/19 07:28:17;;;;;;;6.23;5.63;;;27.60;99.90;;;;;;4972782;28;20451;-71
2023/08/19 07:30:43;;;;;;;6.27;5.03;;;27.90;99.90;;;;;;4970792;28;20451;-71
2023/08/19 07:33:11;;;;;;;5.80;5.30;;;28.30;99.90;;;;;;4971234;28;20459;-71
2023/08/19 07:35:37;;;;;;;8.00;5.20;;;28.60;99.90;;;;;;4970998;28;20523;-71
2023/08/19 07:38:02;;;;;;;5.53;5.03;;;28.70;99.90;;;;;;4971315;28;20462;-70
2023/08/19 07:40:28;;;;;;;7.23;5.60;;;28.80;99.90;;;;;;4965774;28;20475;-71
2023/08/19 07:42:53;;;;;;;13.63;5.00;;;29.00;99.90;;;;;;4972174;28;20196;-71
2023/08/19 07:45:19;;;;;;;7.00;6.30;;;29.00;99.90;;;;;;4973242;28;20259;-71
2023/08/19 07:47:45;;;;;;;9.20;5.00;;;29.40;99.90;;;;;;4968553;28;20184;-71
2023/08/19 07:50:10;;;;;;;6.73;5.50;;;29.50;99.90;;;;;;4968925;28;20207;-71
2023/08/19 07:52:36;;;;;;;8.87;4.77;;;29.50;99.90;;;;;;4971890;28;20278;-71
2023/08/19 07:55:01;;;;;;;6.60;5.40;;;29.60;99.90;;;;;;4971240;28;20203;-71
2023/08/19 07:57:27;;;;;;;6.00;5.27;;;29.60;99.90;;;;;;4973108;28;20183;-71
2023/08/19 07:59:53;;;;;;;5.67;5.17;;;29.90;99.90;;;;;;4963569;28;20176;-71
2023/08/19 08:02:18;;;;;;;7.93;5.07;;;30.00;99.90;;;;;;4970825;28;20506;-72
2023/08/19 08:04:44;;;;;;;7.70;6.17;;;30.40;99.90;;;;;;4971827;28;20650;-72
2023/08/19 08:07:10;;;;;;;6.53;4.70;;;30.70;99.90;;;;;;4972016;28;20184;-72
2023/08/19 08:09:37;;;;;;;6.23;5.20;;;30.80;99.90;;;;;;4965899;28;20597;-71
2023/08/19 08:12:03;;;;;;;6.33;5.30;;;30.80;99.90;;;;;;4969497;28;20336;-71
2023/08/19 08:14:28;;;;;;;7.63;5.17;;;31.40;99.90;;;;;;4970205;28;20450;-71
2023/08/19 08:16:56;;;;;;;8.90;7.77;;;31.90;99.90;;;;;;4971393;28;20430;-71
2023/08/19 08:19:28;;;;;;;6.10;5.60;;;32.30;99.90;;;;;;4971840;28;20187;-71
2023/08/19 08:21:54;;;;;;;5.57;4.23;;;32.70;99.40;;;;;;4970105;28;20469;-72
2023/08/19 08:24:20;;;;;;;5.73;5.17;;;32.70;97.40;;;;;;4969704;28;20439;-69
2023/08/19 08:26:46;;;;;;;7.40;4.97;;;32.30;96.50;;;;;;4967469;28;20177;-69
2023/08/19 08:29:12;;;;;;;9.70;5.13;;;32.00;96.10;;;;;;4970653;28;20435;-69
2023/08/19 08:31:37;;;;;;;7.30;5.10;;;32.10;96.50;;;;;;4967475;28;20487;-69
2023/08/19 08:34:03;;;;;;;6.97;5.63;;;32.20;96.60;;;;;;4969082;28;20200;-70
2023/08/19 08:36:29;;;;;;;6.00;5.30;;;32.50;96.50;;;;;;4971389;28;20486;-69
2023/08/19 08:38:54;;;;;;;6.20;5.70;;;33.00;95.10;;;;;;4966907;28;20439;-69
2023/08/19 08:41:21;;;;;;;10.33;4.90;;;33.30;92.80;;;;;;4970661;28;20196;-69
2023/08/19 08:43:48;;;;;;;7.30;5.43;;;33.40;91.90;;;;;;4971253;28;20566;-69
2023/08/19 08:46:19;;;;;;;5.87;4.33;;;33.50;91.70;;;;;;4970440;28;20912;-69
2023/08/19 08:48:46;;;;;;;8.30;5.30;;;33.40;90.60;;;;;;4963588;28;20437;-70
2023/08/19 08:51:14;;;;;;;6.80;5.50;;;33.50;90.30;;;;;;4975010;28;20455;-69
2023/08/19 08:53:39;;;;;;;12.23;5.53;;;33.40;90.30;;;;;;4976361;28;20432;-69
2023/08/19 08:56:06;;;;;;;5.77;5.27;;;33.30;90.80;;;;;;4970141;28;21021;-69
2023/08/19 08:58:31;;;;;;;6.37;5.10;;;34.00;90.30;;;;;;4975614;28;20199;-70
2023/08/19 09:00:58;;;;;;;5.27;4.87;;;34.50;88.20;;;;;;4974941;28;20451;-69
2023/08/19 09:03:30;;;;;;;6.83;5.00;;;34.70;85.90;;;;;;4968427;28;20717;-70
2023/08/19 09:05:58;;;;;;;5.50;5.10;;;34.50;84.50;;;;;;4974402;28;20454;-70
2023/08/19 09:08:36;;;;;;;5.80;5.17;;;34.70;85.40;;;;;;4967166;28;20516;-70
2023/08/19 09:11:02;;;;;;;7.63;4.97;;;34.80;84.00;;;;;;4973828;28;20442;-69
2023/08/19 09:13:28;;;;;;;6.20;5.30;;;34.90;83.20;;;;;;4975850;28;20550;-69
2023/08/19 09:15:54;;;;;;;5.90;5.20;;;34.90;82.80;;;;;;4971473;28;20526;-69
2023/08/19 09:18:21;;;;;;;6.07;5.27;;;35.00;81.30;;;;;;4969568;28;20526;-69
2023/08/19 09:20:47;;;;;;;5.53;4.93;;;35.30;80.60;;;;;;4975512;28;20204;-69
2023/08/19 09:23:12;;;;;;;6.17;5.57;;;35.60;79.80;;;;;;4973816;28;20462;-69
2023/08/19 09:25:40;;;;;;;5.20;4.70;;;35.80;78.60;;;;;;4967420;28;20212;-70
2023/08/19 09:28:06;;;;;;;7.50;5.93;;;36.00;78.00;;;;;;4973806;28;20212;-70
2023/08/19 09:30:35;;;;;;;8.40;5.80;;;36.40;76.90;;;;;;4972418;28;20449;-70
2023/08/19 09:33:01;;;;;;;6.57;5.07;;;36.70;76.10;;;;;;4958331;28;20817;-71
2023/08/19 09:35:35;;;;;;;5.63;4.90;;;36.60;74.50;;;;;;4972582;28;20434;-71
2023/08/19 09:38:00;;;;;;;6.07;5.47;;;35.90;75.90;;;;;;4973534;28;20948;-71
2023/08/19 09:40:26;;;;;;;8.20;6.80;;;36.80;74.70;;;;;;4974571;28;20470;-70
2023/08/19 09:42:52;;;;;;;5.97;5.40;;;37.30;72.80;;;;;;4973019;28;20232;-71
2023/08/19 09:45:19;;;;;;;7.17;5.17;;;37.60;71.30;;;;;;4972861;28;20198;-71
2023/08/19 09:47:49;;;;;;;6.50;4.80;;;38.30;69.20;;;;;;4974331;28;20701;-71
2023/08/19 09:50:17;;;;;;;5.40;4.90;;;38.30;67.70;;;;;;4973668;28;20467;-71
2023/08/19 09:53:01;;;;;;;6.70;5.77;;;38.80;66.70;;;;;;4966249;28;20455;-71
2023/08/19 09:55:34;;;;;;;6.00;5.50;;;39.20;63.90;;;;;;4967092;28;20439;-71
2023/08/19 09:57:59;;;;;;;5.90;5.33;;;40.10;61.80;;;;;;4968289;28;21145;-71
2023/08/19 10:00:25;;;;;;;5.97;5.40;;;39.90;61.00;;;;;;4973092;28;20453;-72
2023/08/19 10:02:51;;;;;;;5.20;4.80;;;38.90;61.20;;;;;;4976254;28;20240;-73
2023/08/19 10:05:17;;;;;;;6.17;5.43;;;39.30;60.80;;;;;;4975843;28;20202;-72
2023/08/19 10:07:51;;;;;;;6.67;5.30;;;39.60;59.90;;;;;;4968935;28;20654;-68
2023/08/19 10:10:19;;;;;;;7.33;5.07;;;41.00;58.80;;;;;;4968719;28;20968;-72
2023/08/19 10:12:46;;;;;;;6.23;5.63;;;42.10;56.90;;;;;;4974557;28;20558;-70
2023/08/19 10:15:13;;;;;;;7.33;5.90;;;42.90;55.10;;;;;;4974415;28;20446;-69
2023/08/19 10:17:43;;;;;;;5.77;5.10;;;42.70;54.50;;;;;;4981674;28;20572;-69
2023/08/19 10:20:12;;;;;;;6.47;4.90;;;43.60;52.60;;;;;;4967923;28;20498;-69
2023/08/19 10:22:44;;;;;;;4.90;4.60;;;43.80;51.50;;;;;;4985199;28;20986;-69
2023/08/19 10:25:11;;;;;;;5.27;4.87;;;44.40;50.80;;;;;;4972083;28;20426;-71
2023/08/19 10:27:37;;;;;;;4.67;4.27;;;44.60;49.90;;;;;;4967078;28;20436;-69
2023/08/19 10:30:24;;;;;;;4.80;4.40;;;44.60;49.10;;;;;;4973066;28;20444;-70
2023/08/19 10:32:50;;;;;;;5.30;5.00;;;44.90;48.10;;;;;;4959858;28;20610;-69
2023/08/19 10:35:16;;;;;;;4.80;4.40;;;44.90;46.50;;;;;;4971297;28;20442;-69
2023/08/19 10:37:43;;;;;;;8.30;5.73;;;43.90;46.60;;;;;;4972620;28;20718;-69
2023/08/19 10:40:17;;;;;;;5.20;4.80;;;44.30;46.20;;;;;;4967461;28;20550;-69
2023/08/19 10:42:58;;;;;;;6.83;4.80;;;44.10;45.30;;;;;;4968316;28;20552;-70
2023/08/19 10:45:33;;;;;;;5.30;4.80;;;46.00;45.20;;;;;;4965557;28;20479;-69
2023/08/19 10:47:59;;;;;;;5.70;5.27;;;47.00;43.70;;;;;;4956086;28;20957;-69
2023/08/19 10:50:34;;;;;;;6.33;5.70;;;47.20;42.90;;;;;;4965224;28;20463;-69
2023/08/19 10:53:01;;;;;;;6.73;5.00;;;47.40;42.40;;;;;;4962565;28;20216;-70
2023/08/19 10:55:27;;;;;;;11.63;6.40;;;47.80;41.70;;;;;;4969923;28;20442;-69
2023/08/19 10:57:53;;;;;;;5.40;5.10;;;48.40;41.10;;;;;;4970572;28;20442;-69
2023/08/19 11:00:23;;;;;;;6.33;4.90;;;48.30;40.10;;;;;;4968822;28;20259;-70
2023/08/19 11:02:49;;;;;;;6.40;5.93;;;48.30;39.60;;;;;;4971209;28;20832;-70
2023/08/19 11:05:26;;;;;;;6.77;6.27;;;48.40;39.20;;;;;;4973772;28;20416;-70
2023/08/19 11:07:54;;;;;;;5.50;5.00;;;49.00;38.80;;;;;;4966737;28;20180;-71
2023/08/19 11:10:20;;;;;;;5.83;5.30;;;48.80;39.00;;;;;;4959869;28;20459;-69
2023/08/19 11:12:48;;;;;;;7.13;5.10;;;49.20;38.70;;;;;;4984098;23;20513;-65
2023/08/19 11:15:13;;;;;;;5.57;5.07;;;48.90;37.70;;;;;;4991640;28;20215;-66
2023/08/19 11:17:39;;;;;;;7.53;5.87;;;49.20;37.60;;;;;;4990296;28;20918;-66
2023/08/19 11:20:13;;;;;;;6.87;6.10;;;50.00;36.70;;;;;;4991327;28;20213;-66
2023/08/19 11:22:46;;;;;;;5.43;5.03;;;49.20;36.40;;;;;;4991267;28;20211;-66
2023/08/19 11:25:13;;;;;;;6.10;5.60;;;48.60;36.60;;;;;;4992425;28;20505;-66
2023/08/19 11:27:39;;;;;;;6.77;5.90;;;48.30;36.60;;;;;;4992019;28;20438;-66
2023/08/19 11:30:08;;;;;;;6.90;5.37;;;48.30;36.80;;;;;;4991171;28;20923;-66
2023/08/19 11:32:35;;;;;;;5.67;5.20;;;48.80;35.90;;;;;;4972931;28;20512;-66
2023/08/19 11:35:01;;;;;;;6.00;5.50;;;49.10;35.60;;;;;;4994276;28;20434;-66
2023/08/19 11:37:30;;;;;;;5.70;5.33;;;49.20;35.10;;;;;;4992235;28;20465;-66
2023/08/19 11:39:56;;;;;;;5.73;5.33;;;49.90;34.50;;;;;;4992109;28;20185;-65
2023/08/19 11:42:21;;;;;;;5.93;5.53;;;49.40;35.00;;;;;;4990126;28;20525;-66
2023/08/19 11:44:48;;;;;;;5.53;5.03;;;49.00;35.10;;;;;;4991004;28;20194;-66
2023/08/19 11:47:14;;;;;;;5.93;5.30;;;47.60;35.70;;;;;;4992677;28;20187;-65
2023/08/19 11:49:42;;;;;;;5.53;5.13;;;46.80;36.40;;;;;;4987800;28;20952;-68
2023/08/19 11:52:07;;;;;;;6.50;5.57;;;46.90;36.20;;;;;;4985982;28;20215;-68
2023/08/19 11:54:33;;;;;;;5.43;4.93;;;47.00;36.40;;;;;;4991744;28;21100;-68
2023/08/19 11:57:01;;;;;;;6.63;6.13;;;47.80;35.60;;;;;;4992199;28;20175;-71
2023/08/19 11:59:33;;;;;;;7.50;6.03;;;48.80;35.40;;;;;;4989112;28;20176;-68
2023/08/19 12:02:08;;;;;;;5.93;5.40;;;49.40;35.50;;;;;;4991681;28;20449;-68
2023/08/19 12:04:34;;;;;;;6.00;5.63;;;50.00;35.20;;;;;;4990371;28;20472;-68
2023/08/19 12:07:09;;;;;;;6.47;6.03;;;50.50;34.20;;;;;;4991362;28;20851;-68
2023/08/19 12:09:38;;;;;;;6.87;6.20;;;50.20;34.70;;;;;;4990920;28;20190;-68
2023/08/19 12:12:09;;;;;;;6.37;5.80;;;50.50;34.40;;;;;;4991121;28;20489;-69
2023/08/19 12:14:34;;;;;;;6.77;6.27;;;50.80;34.70;;;;;;4992365;28;20462;-68
2023/08/19 12:17:00;;;;;;;6.40;6.07;;;51.30;33.60;;;;;;4991047;28;20441;-68
2023/08/19 12:19:25;;;;;;;6.20;5.77;;;52.00;33.40;;;;;;4991723;28;20203;-68
2023/08/19 12:21:51;;;;;;;6.40;6.00;;;52.10;33.30;;;;;;4992365;28;20179;-68
2023/08/19 12:24:16;;;;;;;5.97;5.57;;;51.80;33.30;;;;;;4994257;28;20214;-69
2023/08/19 12:26:42;;;;;;;7.90;6.67;;;50.80;33.60;;;;;;4996311;28;20186;-69
2023/08/19 12:29:07;;;;;;;5.77;5.37;;;51.70;33.70;;;;;;4994319;28;20184;-69
2023/08/19 12:31:33;;;;;;;6.20;5.70;;;49.30;33.80;;;;;;4996069;28;20688;-68
2023/08/19 12:33:58;;;;;;;7.63;5.70;;;48.50;35.40;;;;;;4996445;28;20202;-68
2023/08/19 12:36:24;;;;;;;6.27;5.67;;;48.70;35.10;;;;;;4996193;28;20164;-68
2023/08/19 12:38:49;;;;;;;6.60;6.00;;;48.10;35.50;;;;;;4993807;28;20200;-68
2023/08/19 12:41:15;;;;;;;7.53;5.97;;;46.80;36.50;;;;;;4996030;28;20179;-68
2023/08/19 12:43:41;;;;;;;6.03;4.97;;;45.90;37.10;;;;;;4994191;28;20214;-68